sensor_id;sensor_type;location;lat;lon;timestamp;P1;durP1;ratioP1;P2;durP2;ratioP2
14528;SDS011;7351;51.194;4.098;2023-04-01T00:00:47;4.27;;;2.87;;
14528;SDS011;7351;51.194;4.098;2023-04-01T00:03:15;3.60;;;2.50;;
14528;SDS011;7351;51.194;4.098;2023-04-01T00:05:42;4.33;;;2.90;;
14528;SDS011;7351;51.194;4.098;2023-04-01T00:08:09;4.90;;;2.67;;
14528;SDS011;7351;51.194;4.098;2023-04-01T00:10:36;4.27;;;1.97;;
14528;SDS011;7351;51.194;4.098;2023-04-01T00:13:03;3.10;;;2.60;;
14528;SDS011;7351;51.194;4.098;2023-04-01T00:15:31;4.10;;;2.33;;
14528;SDS011;7351;51.194;4.098;2023-04-01T00:17:59;3.67;;;2.17;;
14528;SDS011;7351;51.194;4.098;2023-04-01T00:20:26;5.50;;;2.00;;
14528;SDS011;7351;51.194;4.098;2023-04-01T00:22:53;2.00;;;1.70;;
14528;SDS011;7351;51.194;4.098;2023-04-01T00:25:21;3.50;;;2.60;;
14528;SDS011;7351;51.194;4.098;2023-04-01T00:27:48;4.23;;;2.50;;
14528;SDS011;7351;51.194;4.098;2023-04-01T00:30:15;4.47;;;2.23;;
14528;SDS011;7351;51.194;4.098;2023-04-01T00:32:46;3.77;;;2.67;;
14528;SDS011;7351;51.194;4.098;2023-04-01T00:35:17;2.77;;;2.17;;
14528;SDS011;7351;51.194;4.098;2023-04-01T00:37:44;2.30;;;2.10;;
14528;SDS011;7351;51.194;4.098;2023-04-01T00:40:21;2.93;;;2.30;;
14528;SDS011;7351;51.194;4.098;2023-04-01T00:42:51;3.40;;;1.97;;
14528;SDS011;7351;51.194;4.098;2023-04-01T00:45:23;4.07;;;2.40;;
14528;SDS011;7351;51.194;4.098;2023-04-01T00:47:58;4.13;;;2.00;;
14528;SDS011;7351;51.194;4.098;2023-04-01T00:50:28;3.90;;;2.73;;
14528;SDS011;7351;51.194;4.098;2023-04-01T00:52:56;2.80;;;2.23;;
14528;SDS011;7351;51.194;4.098;2023-04-01T00:55:25;3.10;;;1.90;;
14528;SDS011;7351;51.194;4.098;2023-04-01T00:57:54;2.50;;;2.00;;
14528;SDS011;7351;51.194;4.098;2023-04-01T01:00:23;4.37;;;2.40;;
14528;SDS011;7351;51.194;4.098;2023-04-01T01:02:51;3.10;;;2.23;;
14528;SDS011;7351;51.194;4.098;2023-04-01T01:05:22;3.77;;;2.47;;
14528;SDS011;7351;51.194;4.098;2023-04-01T01:07:56;3.17;;;1.90;;
14528;SDS011;7351;51.194;4.098;2023-04-01T01:10:29;3.27;;;1.97;;
14528;SDS011;7351;51.194;4.098;2023-04-01T01:13:00;2.93;;;2.30;;
14528;SDS011;7351;51.194;4.098;2023-04-01T01:15:34;1.93;;;1.50;;
14528;SDS011;7351;51.194;4.098;2023-04-01T01:18:07;2.10;;;1.43;;
14528;SDS011;7351;51.194;4.098;2023-04-01T01:20:51;2.70;;;1.93;;
14528;SDS011;7351;51.194;4.098;2023-04-01T01:26:42;4.03;;;2.33;;
14528;SDS011;7351;51.194;4.098;2023-04-01T01:32:37;2.83;;;2.23;;
14528;SDS011;7351;51.194;4.098;2023-04-01T01:35:18;2.93;;;1.93;;
14528;SDS011;7351;51.194;4.098;2023-04-01T01:37:49;2.83;;;2.10;;
14528;SDS011;7351;51.194;4.098;2023-04-01T01:40:19;3.67;;;2.10;;
14528;SDS011;7351;51.194;4.098;2023-04-01T01:42:48;4.10;;;2.20;;
14528;SDS011;7351;51.194;4.098;2023-04-01T01:45:18;2.20;;;2.00;;
14528;SDS011;7351;51.194;4.098;2023-04-01T01:47:47;2.20;;;1.83;;
14528;SDS011;7351;51.194;4.098;2023-04-01T01:50:18;1.97;;;1.80;;
14528;SDS011;7351;51.194;4.098;2023-04-01T01:52:46;3.83;;;1.53;;
14528;SDS011;7351;51.194;4.098;2023-04-01T01:55:26;2.33;;;1.40;;
14528;SDS011;7351;51.194;4.098;2023-04-01T01:57:55;2.93;;;1.60;;
14528;SDS011;7351;51.194;4.098;2023-04-01T02:00:25;4.90;;;2.30;;
14528;SDS011;7351;51.194;4.098;2023-04-01T02:02:53;2.70;;;1.83;;
14528;SDS011;7351;51.194;4.098;2023-04-01T02:05:24;3.57;;;1.73;;
14528;SDS011;7351;51.194;4.098;2023-04-01T02:07:55;3.17;;;1.63;;
14528;SDS011;7351;51.194;4.098;2023-04-01T02:10:27;2.17;;;1.73;;
14528;SDS011;7351;51.194;4.098;2023-04-01T02:12:58;3.93;;;2.30;;
14528;SDS011;7351;51.194;4.098;2023-04-01T02:15:32;2.40;;;1.63;;
14528;SDS011;7351;51.194;4.098;2023-04-01T02:18:03;3.00;;;1.60;;
14528;SDS011;7351;51.194;4.098;2023-04-01T02:20:33;1.80;;;1.33;;
14528;SDS011;7351;51.194;4.098;2023-04-01T02:23:02;2.17;;;1.83;;
14528;SDS011;7351;51.194;4.098;2023-04-01T02:25:32;2.23;;;1.90;;
14528;SDS011;7351;51.194;4.098;2023-04-01T02:28:01;2.13;;;1.57;;
14528;SDS011;7351;51.194;4.098;2023-04-01T02:30:31;3.27;;;1.70;;
14528;SDS011;7351;51.194;4.098;2023-04-01T02:33:00;2.27;;;1.50;;
14528;SDS011;7351;51.194;4.098;2023-04-01T02:35:28;1.57;;;1.47;;
14528;SDS011;7351;51.194;4.098;2023-04-01T02:37:57;2.43;;;1.80;;
14528;SDS011;7351;51.194;4.098;2023-04-01T02:40:25;3.57;;;1.90;;
14528;SDS011;7351;51.194;4.098;2023-04-01T02:42:52;2.60;;;1.90;;
14528;SDS011;7351;51.194;4.098;2023-04-01T02:45:19;1.93;;;1.50;;
14528;SDS011;7351;51.194;4.098;2023-04-01T02:47:46;1.87;;;1.40;;
14528;SDS011;7351;51.194;4.098;2023-04-01T02:50:13;3.20;;;1.43;;
14528;SDS011;7351;51.194;4.098;2023-04-01T02:52:40;1.77;;;1.20;;
14528;SDS011;7351;51.194;4.098;2023-04-01T02:55:08;2.07;;;1.00;;
14528;SDS011;7351;51.194;4.098;2023-04-01T02:57:35;2.13;;;1.30;;
14528;SDS011;7351;51.194;4.098;2023-04-01T03:00:03;2.40;;;1.63;;
14528;SDS011;7351;51.194;4.098;2023-04-01T03:02:36;2.43;;;1.43;;
14528;SDS011;7351;51.194;4.098;2023-04-01T03:05:04;1.03;;;0.90;;
14528;SDS011;7351;51.194;4.098;2023-04-01T03:07:32;1.60;;;1.47;;
14528;SDS011;7351;51.194;4.098;2023-04-01T03:09:59;2.37;;;1.83;;
14528;SDS011;7351;51.194;4.098;2023-04-01T03:12:27;2.07;;;1.60;;
14528;SDS011;7351;51.194;4.098;2023-04-01T03:14:54;2.40;;;1.67;;
14528;SDS011;7351;51.194;4.098;2023-04-01T03:17:21;2.10;;;1.53;;
14528;SDS011;7351;51.194;4.098;2023-04-01T03:19:48;2.73;;;1.17;;
14528;SDS011;7351;51.194;4.098;2023-04-01T03:22:15;1.67;;;1.33;;
14528;SDS011;7351;51.194;4.098;2023-04-01T03:24:44;2.03;;;1.20;;
14528;SDS011;7351;51.194;4.098;2023-04-01T03:27:11;1.50;;;1.27;;
14528;SDS011;7351;51.194;4.098;2023-04-01T03:29:39;1.47;;;1.30;;
14528;SDS011;7351;51.194;4.098;2023-04-01T03:32:06;2.70;;;1.50;;
14528;SDS011;7351;51.194;4.098;2023-04-01T03:34:33;2.27;;;1.40;;
14528;SDS011;7351;51.194;4.098;2023-04-01T03:37:00;1.20;;;1.03;;
14528;SDS011;7351;51.194;4.098;2023-04-01T03:39:27;2.83;;;1.63;;
14528;SDS011;7351;51.194;4.098;2023-04-01T03:41:54;2.70;;;1.33;;
14528;SDS011;7351;51.194;4.098;2023-04-01T03:44:21;1.90;;;1.27;;
14528;SDS011;7351;51.194;4.098;2023-04-01T03:46:49;3.00;;;1.43;;
14528;SDS011;7351;51.194;4.098;2023-04-01T03:49:17;2.73;;;1.40;;
14528;SDS011;7351;51.194;4.098;2023-04-01T03:51:44;1.40;;;1.30;;
14528;SDS011;7351;51.194;4.098;2023-04-01T03:54:11;2.70;;;1.53;;
14528;SDS011;7351;51.194;4.098;2023-04-01T03:56:38;1.57;;;1.17;;
14528;SDS011;7351;51.194;4.098;2023-04-01T03:59:05;1.13;;;0.80;;
14528;SDS011;7351;51.194;4.098;2023-04-01T04:01:33;2.93;;;1.43;;
14528;SDS011;7351;51.194;4.098;2023-04-01T04:04:02;2.33;;;1.50;;
14528;SDS011;7351;51.194;4.098;2023-04-01T04:06:32;2.00;;;1.37;;
14528;SDS011;7351;51.194;4.098;2023-04-01T04:09:00;1.63;;;1.03;;
14528;SDS011;7351;51.194;4.098;2023-04-01T04:11:27;1.97;;;1.50;;
14528;SDS011;7351;51.194;4.098;2023-04-01T04:13:53;1.27;;;1.17;;
14528;SDS011;7351;51.194;4.098;2023-04-01T04:16:20;3.87;;;1.33;;
14528;SDS011;7351;51.194;4.098;2023-04-01T04:18:47;2.13;;;1.43;;
14528;SDS011;7351;51.194;4.098;2023-04-01T04:21:17;1.70;;;1.37;;
14528;SDS011;7351;51.194;4.098;2023-04-01T04:23:44;1.67;;;1.40;;
14528;SDS011;7351;51.194;4.098;2023-04-01T04:26:11;1.30;;;0.97;;
14528;SDS011;7351;51.194;4.098;2023-04-01T04:28:39;2.73;;;1.80;;
14528;SDS011;7351;51.194;4.098;2023-04-01T04:31:06;1.40;;;1.30;;
14528;SDS011;7351;51.194;4.098;2023-04-01T04:33:33;1.90;;;1.10;;
14528;SDS011;7351;51.194;4.098;2023-04-01T04:36:01;1.53;;;1.40;;
14528;SDS011;7351;51.194;4.098;2023-04-01T04:38:30;1.43;;;1.33;;
14528;SDS011;7351;51.194;4.098;2023-04-01T04:40:57;1.50;;;1.40;;
14528;SDS011;7351;51.194;4.098;2023-04-01T04:43:24;1.80;;;1.20;;
14528;SDS011;7351;51.194;4.098;2023-04-01T04:45:51;1.23;;;1.13;;
14528;SDS011;7351;51.194;4.098;2023-04-01T04:48:18;2.20;;;1.10;;
14528;SDS011;7351;51.194;4.098;2023-04-01T04:50:46;1.43;;;1.33;;
14528;SDS011;7351;51.194;4.098;2023-04-01T04:53:14;2.00;;;1.83;;
14528;SDS011;7351;51.194;4.098;2023-04-01T04:55:44;1.33;;;1.23;;
14528;SDS011;7351;51.194;4.098;2023-04-01T04:58:12;1.37;;;1.27;;
14528;SDS011;7351;51.194;4.098;2023-04-01T05:00:39;1.60;;;1.30;;
14528;SDS011;7351;51.194;4.098;2023-04-01T05:03:06;1.83;;;1.37;;
14528;SDS011;7351;51.194;4.098;2023-04-01T05:05:33;1.93;;;1.07;;
14528;SDS011;7351;51.194;4.098;2023-04-01T05:08:00;1.60;;;1.07;;
14528;SDS011;7351;51.194;4.098;2023-04-01T05:10:27;1.23;;;0.97;;
14528;SDS011;7351;51.194;4.098;2023-04-01T05:12:55;1.20;;;1.10;;
14528;SDS011;7351;51.194;4.098;2023-04-01T05:15:23;1.43;;;1.20;;
14528;SDS011;7351;51.194;4.098;2023-04-01T05:17:50;5.23;;;1.10;;
14528;SDS011;7351;51.194;4.098;2023-04-01T05:20:17;2.93;;;0.70;;
14528;SDS011;7351;51.194;4.098;2023-04-01T05:22:44;6.53;;;0.83;;
14528;SDS011;7351;51.194;4.098;2023-04-01T05:25:11;2.50;;;0.80;;
14528;SDS011;7351;51.194;4.098;2023-04-01T05:27:38;1.23;;;1.13;;
14528;SDS011;7351;51.194;4.098;2023-04-01T05:30:07;1.20;;;1.10;;
14528;SDS011;7351;51.194;4.098;2023-04-01T05:32:34;0.70;;;0.47;;
14528;SDS011;7351;51.194;4.098;2023-04-01T05:35:01;3.33;;;0.80;;
14528;SDS011;7351;51.194;4.098;2023-04-01T05:37:28;1.53;;;0.93;;
14528;SDS011;7351;51.194;4.098;2023-04-01T05:39:59;4.17;;;0.83;;
14528;SDS011;7351;51.194;4.098;2023-04-01T05:42:26;2.30;;;0.90;;
14528;SDS011;7351;51.194;4.098;2023-04-01T05:44:53;3.83;;;0.77;;
14528;SDS011;7351;51.194;4.098;2023-04-01T05:47:22;6.47;;;0.97;;
14528;SDS011;7351;51.194;4.098;2023-04-01T05:49:49;9.00;;;1.10;;
14528;SDS011;7351;51.194;4.098;2023-04-01T05:52:16;1.93;;;0.70;;
14528;SDS011;7351;51.194;4.098;2023-04-01T05:54:43;4.63;;;1.10;;
14528;SDS011;7351;51.194;4.098;2023-04-01T05:57:09;2.87;;;1.00;;
14528;SDS011;7351;51.194;4.098;2023-04-01T05:59:36;2.70;;;0.97;;
14528;SDS011;7351;51.194;4.098;2023-04-01T06:02:03;2.40;;;1.10;;
14528;SDS011;7351;51.194;4.098;2023-04-01T06:04:34;3.77;;;1.57;;
14528;SDS011;7351;51.194;4.098;2023-04-01T06:07:05;1.87;;;1.50;;
14528;SDS011;7351;51.194;4.098;2023-04-01T06:09:37;1.60;;;1.10;;
14528;SDS011;7351;51.194;4.098;2023-04-01T06:12:13;3.80;;;1.00;;
14528;SDS011;7351;51.194;4.098;2023-04-01T06:15:09;6.87;;;1.30;;
14528;SDS011;7351;51.194;4.098;2023-04-01T06:17:49;3.03;;;0.70;;
14528;SDS011;7351;51.194;4.098;2023-04-01T06:20:32;1.20;;;0.70;;
14528;SDS011;7351;51.194;4.098;2023-04-01T06:23:18;4.23;;;0.70;;
14528;SDS011;7351;51.194;4.098;2023-04-01T06:25:56;5.57;;;0.87;;
14528;SDS011;7351;51.194;4.098;2023-04-01T06:28:41;2.17;;;0.90;;
14528;SDS011;7351;51.194;4.098;2023-04-01T06:31:36;1.07;;;0.60;;
14528;SDS011;7351;51.194;4.098;2023-04-01T06:34:20;3.07;;;0.70;;
14528;SDS011;7351;51.194;4.098;2023-04-01T06:37:08;2.60;;;1.00;;
14528;SDS011;7351;51.194;4.098;2023-04-01T06:39:56;2.37;;;1.10;;
14528;SDS011;7351;51.194;4.098;2023-04-01T06:45:37;3.13;;;0.80;;
14528;SDS011;7351;51.194;4.098;2023-04-01T06:48:15;3.90;;;1.03;;
14528;SDS011;7351;51.194;4.098;2023-04-01T06:50:54;2.07;;;1.00;;
14528;SDS011;7351;51.194;4.098;2023-04-01T06:53:33;2.53;;;0.60;;
14528;SDS011;7351;51.194;4.098;2023-04-01T06:56:05;1.20;;;1.07;;
14528;SDS011;7351;51.194;4.098;2023-04-01T06:58:37;3.40;;;1.23;;
14528;SDS011;7351;51.194;4.098;2023-04-01T07:01:08;1.13;;;0.90;;
14528;SDS011;7351;51.194;4.098;2023-04-01T07:03:41;0.80;;;0.70;;
14528;SDS011;7351;51.194;4.098;2023-04-01T07:06:13;3.27;;;0.70;;
14528;SDS011;7351;51.194;4.098;2023-04-01T07:08:49;1.87;;;0.63;;
14528;SDS011;7351;51.194;4.098;2023-04-01T07:11:21;1.43;;;1.03;;
14528;SDS011;7351;51.194;4.098;2023-04-01T07:13:52;4.93;;;0.80;;
14528;SDS011;7351;51.194;4.098;2023-04-01T07:16:24;1.57;;;0.67;;
14528;SDS011;7351;51.194;4.098;2023-04-01T07:18:56;1.07;;;0.63;;
14528;SDS011;7351;51.194;4.098;2023-04-01T07:21:29;2.57;;;0.80;;
14528;SDS011;7351;51.194;4.098;2023-04-01T07:24:03;1.67;;;1.07;;
14528;SDS011;7351;51.194;4.098;2023-04-01T07:26:33;2.73;;;0.70;;
14528;SDS011;7351;51.194;4.098;2023-04-01T07:29:00;1.17;;;0.80;;
14528;SDS011;7351;51.194;4.098;2023-04-01T07:31:34;2.87;;;0.87;;
14528;SDS011;7351;51.194;4.098;2023-04-01T07:34:16;3.03;;;1.10;;
14528;SDS011;7351;51.194;4.098;2023-04-01T07:36:51;3.80;;;1.03;;
14528;SDS011;7351;51.194;4.098;2023-04-01T07:39:30;5.10;;;0.90;;
14528;SDS011;7351;51.194;4.098;2023-04-01T07:42:07;7.07;;;1.20;;
14528;SDS011;7351;51.194;4.098;2023-04-01T07:44:43;1.53;;;0.90;;
14528;SDS011;7351;51.194;4.098;2023-04-01T07:50:08;7.13;;;1.20;;
14528;SDS011;7351;51.194;4.098;2023-04-01T07:52:44;2.97;;;0.83;;
14528;SDS011;7351;51.194;4.098;2023-04-01T07:55:19;4.87;;;1.00;;
14528;SDS011;7351;51.194;4.098;2023-04-01T07:57:52;2.50;;;0.93;;
14528;SDS011;7351;51.194;4.098;2023-04-01T08:00:27;4.20;;;1.30;;
14528;SDS011;7351;51.194;4.098;2023-04-01T08:03:06;3.40;;;1.10;;
14528;SDS011;7351;51.194;4.098;2023-04-01T08:05:46;1.80;;;1.07;;
14528;SDS011;7351;51.194;4.098;2023-04-01T08:08:24;8.50;;;0.80;;
14528;SDS011;7351;51.194;4.098;2023-04-01T08:11:02;0.67;;;0.53;;
14528;SDS011;7351;51.194;4.098;2023-04-01T08:13:38;1.23;;;0.67;;
14528;SDS011;7351;51.194;4.098;2023-04-01T08:16:13;4.07;;;1.10;;
14528;SDS011;7351;51.194;4.098;2023-04-01T08:18:46;2.70;;;0.70;;
14528;SDS011;7351;51.194;4.098;2023-04-01T08:21:23;1.00;;;0.67;;
14528;SDS011;7351;51.194;4.098;2023-04-01T08:23:54;1.40;;;0.70;;
14528;SDS011;7351;51.194;4.098;2023-04-01T08:26:26;0.87;;;0.87;;
14528;SDS011;7351;51.194;4.098;2023-04-01T08:28:59;1.80;;;0.63;;
14528;SDS011;7351;51.194;4.098;2023-04-01T08:31:31;2.63;;;0.77;;
14528;SDS011;7351;51.194;4.098;2023-04-01T08:34:02;2.70;;;0.53;;
14528;SDS011;7351;51.194;4.098;2023-04-01T08:36:32;3.20;;;1.13;;
14528;SDS011;7351;51.194;4.098;2023-04-01T08:39:04;3.23;;;0.97;;
14528;SDS011;7351;51.194;4.098;2023-04-01T08:41:48;1.20;;;0.80;;
14528;SDS011;7351;51.194;4.098;2023-04-01T08:44:34;0.70;;;0.60;;
14528;SDS011;7351;51.194;4.098;2023-04-01T08:47:20;1.20;;;0.60;;
14528;SDS011;7351;51.194;4.098;2023-04-01T08:53:09;1.40;;;0.70;;
14528;SDS011;7351;51.194;4.098;2023-04-01T08:58:37;1.80;;;0.60;;
14528;SDS011;7351;51.194;4.098;2023-04-01T09:01:36;1.90;;;0.70;;
14528;SDS011;7351;51.194;4.098;2023-04-01T09:04:31;0.80;;;0.77;;
14528;SDS011;7351;51.194;4.098;2023-04-01T09:07:16;1.17;;;0.57;;
14528;SDS011;7351;51.194;4.098;2023-04-01T09:13:05;1.03;;;0.80;;
14528;SDS011;7351;51.194;4.098;2023-04-01T09:18:46;0.83;;;0.57;;
14528;SDS011;7351;51.194;4.098;2023-04-01T09:21:29;1.37;;;0.53;;
14528;SDS011;7351;51.194;4.098;2023-04-01T09:27:03;0.80;;;0.60;;
14528;SDS011;7351;51.194;4.098;2023-04-01T09:29:40;1.07;;;0.60;;
14528;SDS011;7351;51.194;4.098;2023-04-01T09:32:30;2.47;;;0.70;;
14528;SDS011;7351;51.194;4.098;2023-04-01T09:35:20;1.13;;;0.90;;
14528;SDS011;7351;51.194;4.098;2023-04-01T09:37:52;0.73;;;0.73;;
14528;SDS011;7351;51.194;4.098;2023-04-01T09:40:28;0.30;;;0.30;;
14528;SDS011;7351;51.194;4.098;2023-04-01T09:43:04;1.50;;;0.70;;
14528;SDS011;7351;51.194;4.098;2023-04-01T09:45:48;0.83;;;0.77;;
14528;SDS011;7351;51.194;4.098;2023-04-01T09:48:34;0.70;;;0.63;;
14528;SDS011;7351;51.194;4.098;2023-04-01T09:51:22;0.50;;;0.50;;
14528;SDS011;7351;51.194;4.098;2023-04-01T09:54:01;1.90;;;0.67;;
14528;SDS011;7351;51.194;4.098;2023-04-01T09:59:58;1.00;;;0.70;;
14528;SDS011;7351;51.194;4.098;2023-04-01T10:06:20;1.23;;;0.83;;
14528;SDS011;7351;51.194;4.098;2023-04-01T10:09:24;1.27;;;0.97;;
14528;SDS011;7351;51.194;4.098;2023-04-01T10:12:39;1.20;;;0.60;;
14528;SDS011;7351;51.194;4.098;2023-04-01T10:27:49;2.20;;;0.80;;
14528;SDS011;7351;51.194;4.098;2023-04-01T10:33:46;0.97;;;0.50;;
14528;SDS011;7351;51.194;4.098;2023-04-01T10:36:54;0.47;;;0.40;;
14528;SDS011;7351;51.194;4.098;2023-04-01T10:39:33;2.97;;;0.70;;
14528;SDS011;7351;51.194;4.098;2023-04-01T10:48:35;1.30;;;0.77;;
14528;SDS011;7351;51.194;4.098;2023-04-01T10:51:38;1.83;;;0.80;;
14528;SDS011;7351;51.194;4.098;2023-04-01T10:54:36;0.97;;;0.77;;
14528;SDS011;7351;51.194;4.098;2023-04-01T10:57:23;1.63;;;0.63;;
14528;SDS011;7351;51.194;4.098;2023-04-01T11:03:38;2.37;;;0.80;;
14528;SDS011;7351;51.194;4.098;2023-04-01T11:06:37;2.40;;;0.73;;
14528;SDS011;7351;51.194;4.098;2023-04-01T11:09:44;2.23;;;1.27;;
14528;SDS011;7351;51.194;4.098;2023-04-01T11:15:31;1.10;;;0.93;;
14528;SDS011;7351;51.194;4.098;2023-04-01T11:27:23;3.33;;;0.70;;
14528;SDS011;7351;51.194;4.098;2023-04-01T11:30:06;5.40;;;1.20;;
14528;SDS011;7351;51.194;4.098;2023-04-01T11:33:00;2.53;;;1.27;;
14528;SDS011;7351;51.194;4.098;2023-04-01T11:35:43;0.87;;;0.50;;
14528;SDS011;7351;51.194;4.098;2023-04-01T11:38:26;6.67;;;1.10;;
14528;SDS011;7351;51.194;4.098;2023-04-01T11:41:13;2.67;;;1.63;;
14528;SDS011;7351;51.194;4.098;2023-04-01T11:43:55;4.00;;;1.27;;
14528;SDS011;7351;51.194;4.098;2023-04-01T11:46:37;3.47;;;1.30;;
14528;SDS011;7351;51.194;4.098;2023-04-01T11:49:20;5.77;;;1.23;;
14528;SDS011;7351;51.194;4.098;2023-04-01T11:52:00;5.30;;;1.40;;
14528;SDS011;7351;51.194;4.098;2023-04-01T11:54:41;1.77;;;1.20;;
14528;SDS011;7351;51.194;4.098;2023-04-01T11:57:30;3.87;;;1.50;;
14528;SDS011;7351;51.194;4.098;2023-04-01T12:00:23;6.73;;;1.37;;
14528;SDS011;7351;51.194;4.098;2023-04-01T12:03:11;1.83;;;1.10;;
14528;SDS011;7351;51.194;4.098;2023-04-01T12:06:10;3.87;;;0.90;;
14528;SDS011;7351;51.194;4.098;2023-04-01T12:08:44;6.27;;;1.30;;
14528;SDS011;7351;51.194;4.098;2023-04-01T12:11:20;3.17;;;0.90;;
14528;SDS011;7351;51.194;4.098;2023-04-01T12:13:59;4.23;;;1.33;;
14528;SDS011;7351;51.194;4.098;2023-04-01T12:19:26;3.57;;;1.00;;
14528;SDS011;7351;51.194;4.098;2023-04-01T12:22:08;2.50;;;1.40;;
14528;SDS011;7351;51.194;4.098;2023-04-01T12:24:49;6.33;;;1.40;;
14528;SDS011;7351;51.194;4.098;2023-04-01T12:27:24;3.03;;;1.70;;
14528;SDS011;7351;51.194;4.098;2023-04-01T12:30:09;1.57;;;0.93;;
14528;SDS011;7351;51.194;4.098;2023-04-01T12:36:05;3.53;;;0.93;;
14528;SDS011;7351;51.194;4.098;2023-04-01T12:38:43;4.03;;;1.13;;
14528;SDS011;7351;51.194;4.098;2023-04-01T12:41:21;1.67;;;0.83;;
14528;SDS011;7351;51.194;4.098;2023-04-01T12:47:16;1.77;;;1.07;;
14528;SDS011;7351;51.194;4.098;2023-04-01T12:49:55;4.20;;;1.37;;
14528;SDS011;7351;51.194;4.098;2023-04-01T12:52:39;1.73;;;0.80;;
14528;SDS011;7351;51.194;4.098;2023-04-01T12:55:35;5.70;;;1.03;;
14528;SDS011;7351;51.194;4.098;2023-04-01T12:58:14;7.87;;;2.17;;
14528;SDS011;7351;51.194;4.098;2023-04-01T13:01:18;3.63;;;1.40;;
14528;SDS011;7351;51.194;4.098;2023-04-01T13:04:08;1.97;;;0.97;;
14528;SDS011;7351;51.194;4.098;2023-04-01T13:07:01;1.00;;;0.70;;
14528;SDS011;7351;51.194;4.098;2023-04-01T13:09:51;5.27;;;1.17;;
14528;SDS011;7351;51.194;4.098;2023-04-01T13:12:30;5.73;;;1.03;;
14528;SDS011;7351;51.194;4.098;2023-04-01T13:15:18;1.30;;;1.10;;
14528;SDS011;7351;51.194;4.098;2023-04-01T13:17:53;2.20;;;1.07;;
14528;SDS011;7351;51.194;4.098;2023-04-01T13:20:35;1.57;;;1.10;;
14528;SDS011;7351;51.194;4.098;2023-04-01T13:23:11;2.57;;;1.10;;
14528;SDS011;7351;51.194;4.098;2023-04-01T13:25:48;5.90;;;1.30;;
14528;SDS011;7351;51.194;4.098;2023-04-01T13:28:21;3.13;;;1.20;;
14528;SDS011;7351;51.194;4.098;2023-04-01T13:30:54;2.63;;;1.53;;
14528;SDS011;7351;51.194;4.098;2023-04-01T13:33:30;1.20;;;1.10;;
14528;SDS011;7351;51.194;4.098;2023-04-01T13:36:10;2.20;;;1.43;;
14528;SDS011;7351;51.194;4.098;2023-04-01T13:38:53;2.60;;;1.37;;
14528;SDS011;7351;51.194;4.098;2023-04-01T13:41:38;7.23;;;1.43;;
14528;SDS011;7351;51.194;4.098;2023-04-01T13:44:17;6.17;;;1.97;;
14528;SDS011;7351;51.194;4.098;2023-04-01T13:46:54;1.97;;;1.77;;
14528;SDS011;7351;51.194;4.098;2023-04-01T13:49:45;1.23;;;1.17;;
14528;SDS011;7351;51.194;4.098;2023-04-01T13:52:37;1.97;;;1.47;;
14528;SDS011;7351;51.194;4.098;2023-04-01T13:55:20;4.00;;;1.80;;
14528;SDS011;7351;51.194;4.098;2023-04-01T13:58:07;2.77;;;1.57;;
14528;SDS011;7351;51.194;4.098;2023-04-01T14:00:54;3.60;;;1.27;;
14528;SDS011;7351;51.194;4.098;2023-04-01T14:03:28;3.50;;;1.77;;
14528;SDS011;7351;51.194;4.098;2023-04-01T14:06:11;3.37;;;1.53;;
14528;SDS011;7351;51.194;4.098;2023-04-01T14:08:51;3.30;;;1.43;;
14528;SDS011;7351;51.194;4.098;2023-04-01T14:11:36;1.40;;;1.30;;
14528;SDS011;7351;51.194;4.098;2023-04-01T14:14:11;2.93;;;1.67;;
14528;SDS011;7351;51.194;4.098;2023-04-01T14:19:51;2.40;;;1.37;;
14528;SDS011;7351;51.194;4.098;2023-04-01T14:22:45;3.10;;;2.13;;
14528;SDS011;7351;51.194;4.098;2023-04-01T14:25:35;3.27;;;1.60;;
14528;SDS011;7351;51.194;4.098;2023-04-01T14:28:18;1.47;;;1.10;;
14528;SDS011;7351;51.194;4.098;2023-04-01T14:31:00;3.10;;;1.53;;
14528;SDS011;7351;51.194;4.098;2023-04-01T14:33:51;1.93;;;1.73;;
14528;SDS011;7351;51.194;4.098;2023-04-01T14:36:33;8.70;;;1.77;;
14528;SDS011;7351;51.194;4.098;2023-04-01T14:39:19;5.83;;;1.30;;
14528;SDS011;7351;51.194;4.098;2023-04-01T14:41:59;1.73;;;1.20;;
14528;SDS011;7351;51.194;4.098;2023-04-01T14:44:49;1.50;;;1.10;;
14528;SDS011;7351;51.194;4.098;2023-04-01T14:47:28;2.00;;;1.27;;
14528;SDS011;7351;51.194;4.098;2023-04-01T14:50:14;4.53;;;1.67;;
14528;SDS011;7351;51.194;4.098;2023-04-01T14:52:44;4.80;;;1.43;;
14528;SDS011;7351;51.194;4.098;2023-04-01T14:55:20;2.10;;;1.20;;
14528;SDS011;7351;51.194;4.098;2023-04-01T14:57:59;4.67;;;1.07;;
14528;SDS011;7351;51.194;4.098;2023-04-01T15:00:40;1.40;;;1.30;;
14528;SDS011;7351;51.194;4.098;2023-04-01T15:03:14;2.20;;;1.63;;
14528;SDS011;7351;51.194;4.098;2023-04-01T15:05:49;3.77;;;1.13;;
14528;SDS011;7351;51.194;4.098;2023-04-01T15:08:22;1.63;;;1.40;;
14528;SDS011;7351;51.194;4.098;2023-04-01T15:10:58;4.43;;;1.40;;
14528;SDS011;7351;51.194;4.098;2023-04-01T15:13:46;4.37;;;1.53;;
14528;SDS011;7351;51.194;4.098;2023-04-01T15:16:24;3.53;;;1.10;;
14528;SDS011;7351;51.194;4.098;2023-04-01T15:19:01;4.77;;;1.30;;
14528;SDS011;7351;51.194;4.098;2023-04-01T15:24:34;4.97;;;1.73;;
14528;SDS011;7351;51.194;4.098;2023-04-01T15:27:15;1.93;;;0.93;;
14528;SDS011;7351;51.194;4.098;2023-04-01T15:29:56;5.13;;;1.40;;
14528;SDS011;7351;51.194;4.098;2023-04-01T15:32:50;2.10;;;1.40;;
14528;SDS011;7351;51.194;4.098;2023-04-01T15:35:30;1.70;;;1.50;;
14528;SDS011;7351;51.194;4.098;2023-04-01T15:38:05;2.53;;;1.60;;
14528;SDS011;7351;51.194;4.098;2023-04-01T15:40:38;0.83;;;0.83;;
14528;SDS011;7351;51.194;4.098;2023-04-01T15:43:15;2.50;;;1.63;;
14528;SDS011;7351;51.194;4.098;2023-04-01T15:45:58;2.67;;;1.30;;
14528;SDS011;7351;51.194;4.098;2023-04-01T15:48:41;1.20;;;1.10;;
14528;SDS011;7351;51.194;4.098;2023-04-01T15:51:36;1.33;;;1.23;;
14528;SDS011;7351;51.194;4.098;2023-04-01T15:54:19;2.97;;;1.20;;
14528;SDS011;7351;51.194;4.098;2023-04-01T15:57:10;1.23;;;1.00;;
14528;SDS011;7351;51.194;4.098;2023-04-01T16:00:01;1.80;;;1.00;;
14528;SDS011;7351;51.194;4.098;2023-04-01T16:02:38;1.20;;;1.00;;
14528;SDS011;7351;51.194;4.098;2023-04-01T16:05:20;1.10;;;0.90;;
14528;SDS011;7351;51.194;4.098;2023-04-01T16:08:05;1.20;;;0.97;;
14528;SDS011;7351;51.194;4.098;2023-04-01T16:10:49;1.23;;;1.00;;
14528;SDS011;7351;51.194;4.098;2023-04-01T16:13:28;2.17;;;1.00;;
14528;SDS011;7351;51.194;4.098;2023-04-01T16:16:10;1.70;;;1.00;;
14528;SDS011;7351;51.194;4.098;2023-04-01T16:21:43;1.30;;;1.00;;
14528;SDS011;7351;51.194;4.098;2023-04-01T16:24:17;0.90;;;0.90;;
14528;SDS011;7351;51.194;4.098;2023-04-01T16:26:51;0.80;;;0.80;;
14528;SDS011;7351;51.194;4.098;2023-04-01T16:29:24;2.17;;;1.20;;
14528;SDS011;7351;51.194;4.098;2023-04-01T16:31:59;3.90;;;1.20;;
14528;SDS011;7351;51.194;4.098;2023-04-01T16:34:43;1.90;;;1.10;;
14528;SDS011;7351;51.194;4.098;2023-04-01T16:37:15;1.70;;;1.00;;
14528;SDS011;7351;51.194;4.098;2023-04-01T16:39:47;1.77;;;1.10;;
14528;SDS011;7351;51.194;4.098;2023-04-01T16:42:23;2.57;;;1.53;;
14528;SDS011;7351;51.194;4.098;2023-04-01T16:44:59;2.70;;;1.10;;
14528;SDS011;7351;51.194;4.098;2023-04-01T16:47:29;1.53;;;1.03;;
14528;SDS011;7351;51.194;4.098;2023-04-01T16:50:09;3.33;;;1.47;;
14528;SDS011;7351;51.194;4.098;2023-04-01T16:52:48;1.53;;;1.43;;
14528;SDS011;7351;51.194;4.098;2023-04-01T16:55:30;4.93;;;1.67;;
14528;SDS011;7351;51.194;4.098;2023-04-01T16:58:01;1.60;;;1.03;;
14528;SDS011;7351;51.194;4.098;2023-04-01T17:00:30;3.30;;;1.50;;
14528;SDS011;7351;51.194;4.098;2023-04-01T17:03:08;6.53;;;1.63;;
14528;SDS011;7351;51.194;4.098;2023-04-01T17:05:46;3.90;;;1.83;;
14528;SDS011;7351;51.194;4.098;2023-04-01T17:08:24;3.53;;;1.83;;
14528;SDS011;7351;51.194;4.098;2023-04-01T17:11:06;1.60;;;1.37;;
14528;SDS011;7351;51.194;4.098;2023-04-01T17:13:44;5.60;;;1.90;;
14528;SDS011;7351;51.194;4.098;2023-04-01T17:16:28;2.73;;;1.60;;
14528;SDS011;7351;51.194;4.098;2023-04-01T17:19:13;1.57;;;1.47;;
14528;SDS011;7351;51.194;4.098;2023-04-01T17:21:57;2.87;;;1.60;;
14528;SDS011;7351;51.194;4.098;2023-04-01T17:24:31;2.07;;;1.40;;